Terminal Aerodrome Forecast
Issued by NWS

Home | Current Version | Previous Version | Text Only | Print | Product List | Glossary On
Versions: 1 2 3 4 5 6 7 8 9 10 11 12 13 14
461
FTAK31 PAJN 240526
TAFASI
TAF
PASI 240526Z 2406/2506 30010KT P6SM FEW010 BKN030 OVC045
      TEMPO 2406/2410 SCT010 OVC025
     FM241200 31006KT P6SM VCSH BKN020 OVC030
     FM241800 27005KT P6SM VCSH SCT025 OVC035
     FM250000 29010KT P6SM SCT025 BKN040 OVC060
     FM250400 31007KT P6SM BKN025 OVC045=

USA.gov is the U.S. government's official web portal to all federal, state and local government web resources and services.